createdAt,value
2022-08-05T00:00:18.843Z,35.69
2022-08-05T00:02:51.584Z,35.40
2022-08-05T00:06:02.663Z,35.36
2022-08-05T00:08:35.163Z,35.50
2022-08-05T00:11:01.301Z,35.40
2022-08-05T00:13:39.175Z,35.59
2022-08-05T00:16:13.552Z,35.75
2022-08-05T00:18:46.564Z,35.80
2022-08-05T00:21:17.809Z,35.66
2022-08-05T00:23:53.687Z,35.85
2022-08-05T00:26:34.783Z,35.54
2022-08-05T00:29:02.138Z,35.92
2022-08-05T00:31:54.290Z,35.83
2022-08-05T00:34:56.350Z,35.56
2022-08-05T00:37:11.392Z,35.63
2022-08-05T00:39:58.573Z,36.14
2022-08-05T00:42:39.668Z,36.15
2022-08-05T00:45:11.866Z,35.89
2022-08-05T00:47:56.966Z,35.55
2022-08-05T00:50:28.948Z,36.15
2022-08-05T00:52:56.109Z,35.94
2022-08-05T00:55:42.579Z,35.78
2022-08-05T00:58:19.358Z,36.34
2022-08-05T01:00:50.133Z,36.29
2022-08-05T01:03:22.362Z,36.45
2022-08-05T01:05:54.346Z,36.20
2022-08-05T01:08:41.029Z,36.25
2022-08-05T01:11:36.777Z,36.38
2022-08-05T01:14:28.118Z,36.49
2022-08-05T01:17:14.332Z,36.76
2022-08-05T01:20:06.877Z,36.55
2022-08-05T01:22:51.695Z,36.60
2022-08-05T01:25:54.344Z,36.69
2022-08-05T01:28:26.685Z,36.81
2022-08-05T01:31:17.080Z,36.67
2022-08-05T01:33:53.616Z,36.79
2022-08-05T01:36:28.092Z,36.72
2022-08-05T01:38:56.648Z,36.88
2022-08-05T01:41:31.709Z,37.47
2022-08-05T01:44:02.272Z,37.04
2022-08-05T01:46:42.792Z,37.52
2022-08-05T01:49:24.285Z,37.53
2022-08-05T01:52:00.114Z,37.62
2022-08-05T01:54:47.915Z,37.51
2022-08-05T01:58:13.192Z,37.95
2022-08-05T02:00:14.566Z,37.39
2022-08-05T02:02:53.621Z,37.70
2022-08-05T02:05:28.920Z,37.39
2022-08-05T02:08:01.165Z,37.73
2022-08-05T02:10:36.452Z,37.94
2022-08-05T02:13:16.861Z,37.76
2022-08-05T02:16:00.398Z,38.02
2022-08-05T02:18:41.907Z,37.78
2022-08-05T02:21:43.147Z,38.23
2022-08-05T02:24:23.172Z,38.40
2022-08-05T02:26:56.995Z,38.15
2022-08-05T02:29:58.234Z,38.59
2022-08-05T02:32:24.139Z,38.52
2022-08-05T02:35:13.641Z,38.55
2022-08-05T02:37:47.737Z,38.30
2022-08-05T02:40:24.076Z,38.40
2022-08-05T02:42:54.017Z,38.51
2022-08-05T02:45:24.535Z,38.70
2022-08-05T02:48:06.480Z,38.23
2022-08-05T02:50:38.275Z,38.80
2022-08-05T02:53:18.762Z,38.62
2022-08-05T02:56:00.014Z,39.05
2022-08-05T02:58:30.244Z,38.44
2022-08-05T03:01:02.022Z,38.82
2022-08-05T03:03:34.111Z,39.20
2022-08-05T03:06:53.879Z,39.09
2022-08-05T03:09:17.588Z,38.79
2022-08-05T03:11:55.277Z,38.98
2022-08-05T03:14:25.025Z,38.69
2022-08-05T03:16:54.139Z,39.22
2022-08-05T03:19:33.902Z,38.91
2022-08-05T03:22:01.666Z,39.47
2022-08-05T03:24:30.769Z,39.33
2022-08-05T03:27:01.380Z,39.54
2022-08-05T03:29:46.029Z,39.67
2022-08-05T03:32:17.101Z,39.37
2022-08-05T03:34:50.971Z,39.54
2022-08-05T03:37:20.924Z,39.74
2022-08-05T03:40:01.710Z,39.89
2022-08-05T03:42:32.458Z,40.14
2022-08-05T03:45:22.124Z,39.66
2022-08-05T03:47:51.943Z,40.11
2022-08-05T03:50:25.706Z,40.26
2022-08-05T03:55:49.881Z,40.63
2022-08-05T03:56:12.142Z,40.44
2022-08-05T03:58:51.156Z,40.22
2022-08-05T04:01:21.347Z,40.58
2022-08-05T04:04:10.236Z,39.86
2022-08-05T04:06:47.653Z,40.21
2022-08-05T04:09:26.114Z,40.73
2022-08-05T04:11:56.390Z,40.70
2022-08-05T04:14:30.357Z,40.42
2022-08-05T04:17:00.066Z,40.65
2022-08-05T04:19:29.490Z,40.56
2022-08-05T04:22:08.357Z,40.76
2022-08-05T04:24:44.107Z,41.18
2022-08-05T04:27:13.543Z,40.61
2022-08-05T04:29:42.398Z,40.96
2022-08-05T04:32:10.702Z,40.80
2022-08-05T04:34:42.718Z,40.90
2022-08-05T04:37:10.628Z,41.29
2022-08-05T04:39:39.161Z,41.45
2022-08-05T04:42:07.765Z,41.34
2022-08-05T04:44:36.231Z,41.15
2022-08-05T04:47:09.726Z,41.22
2022-08-05T04:50:02.933Z,41.26
2022-08-05T04:52:28.467Z,41.15
2022-08-05T04:54:57.250Z,41.21
2022-08-05T04:57:28.681Z,41.18
2022-08-05T04:59:59.189Z,41.37
2022-08-05T05:02:41.577Z,41.17
2022-08-05T05:05:26.564Z,41.67
2022-08-05T05:08:02.070Z,41.30
2022-08-05T05:10:47.285Z,41.77
2022-08-05T05:13:23.305Z,41.50
2022-08-05T05:15:56.740Z,41.32
2022-08-05T05:18:33.458Z,41.83
2022-08-05T05:21:02.110Z,41.87
2022-08-05T05:24:02.286Z,41.64
2022-08-05T05:26:17.588Z,41.91
2022-08-05T05:28:45.026Z,41.81
2022-08-05T05:31:13.398Z,41.83
2022-08-05T05:33:59.847Z,41.64
2022-08-05T05:36:28.741Z,41.63
2022-08-05T05:38:57.624Z,41.34
2022-08-05T05:41:25.149Z,41.73
2022-08-05T05:44:35.875Z,41.59
2022-08-05T05:46:54.304Z,41.30
2022-08-05T05:49:23.810Z,41.57
2022-08-05T05:51:51.198Z,41.34
2022-08-05T05:54:20.940Z,41.37
2022-08-05T05:56:48.330Z,41.20
2022-08-05T05:59:15.381Z,41.56
2022-08-05T06:01:57.136Z,41.16
2022-08-05T06:04:25.299Z,41.10
2022-08-05T06:06:52.685Z,41.16
2022-08-05T06:09:36.285Z,40.87
2022-08-05T06:12:09.679Z,40.90
2022-08-05T06:14:40.284Z,40.88
2022-08-05T06:17:52.376Z,40.55
2022-08-05T06:19:57.202Z,40.59
2022-08-05T06:22:36.012Z,40.70
2022-08-05T06:25:24.252Z,40.34
2022-08-05T06:28:11.505Z,40.63
2022-08-05T06:30:41.323Z,40.72
2022-08-05T06:33:09.949Z,40.78
2022-08-05T06:36:07.517Z,40.31
2022-08-05T06:38:35.927Z,40.52
2022-08-05T06:41:05.319Z,40.53
2022-08-05T06:43:51.716Z,40.38
2022-08-05T06:46:23.358Z,40.04
2022-08-05T06:49:01.102Z,40.49
2022-08-05T06:51:31.094Z,40.16
2022-08-05T06:54:04.509Z,40.48
2022-08-05T06:56:34.959Z,40.10
2022-08-05T06:59:09.720Z,40.22
2022-08-05T07:01:40.807Z,40.21
2022-08-05T07:04:10.351Z,40.10
2022-08-05T07:06:37.374Z,40.05
2022-08-05T07:09:04.950Z,39.93
2022-08-05T07:11:37.203Z,39.86
2022-08-05T07:14:29.625Z,39.94
2022-08-05T07:18:00.821Z,39.67
2022-08-05T07:22:41.923Z,39.96
2022-08-05T07:25:22.620Z,39.27
2022-08-05T07:28:03.932Z,39.71
2022-08-05T07:30:39.005Z,39.15
2022-08-05T07:33:16.155Z,39.47
2022-08-05T07:36:02.053Z,39.58
2022-08-05T07:38:43.758Z,39.44
2022-08-05T07:42:13.175Z,39.13
2022-08-05T07:44:14.266Z,39.46
2022-08-05T07:46:49.243Z,39.37
2022-08-05T07:49:18.655Z,39.41
2022-08-05T07:51:53.520Z,39.27
2022-08-05T07:54:31.684Z,39.29
2022-08-05T07:57:17.575Z,39.39
2022-08-05T07:59:52.180Z,39.54
2022-08-05T08:02:26.805Z,38.88
2022-08-05T08:04:59.722Z,39.04
2022-08-05T08:07:28.771Z,39.10
2022-08-05T08:09:56.208Z,39.14
2022-08-05T08:12:33.266Z,38.55
2022-08-05T08:15:13.941Z,38.47
2022-08-05T08:17:43.977Z,38.76
2022-08-05T08:20:44.087Z,38.61
2022-08-05T08:23:05.019Z,38.30
2022-08-05T08:25:59.258Z,38.91
2022-08-05T08:28:36.654Z,38.31
2022-08-05T08:31:07.676Z,38.20
2022-08-05T08:33:37.599Z,38.64
2022-08-05T08:38:57.028Z,37.80
2022-08-05T08:41:52.085Z,38.32
2022-08-05T08:45:22.624Z,37.67
2022-08-05T08:47:47.487Z,37.59
2022-08-05T08:50:07.593Z,37.72
2022-08-05T08:52:52.902Z,37.68
2022-08-05T08:56:01.529Z,37.18
2022-08-05T08:58:13.213Z,37.47
2022-08-05T09:00:42.910Z,37.46
2022-08-05T09:03:12.565Z,37.16
2022-08-05T09:06:08.575Z,36.51
2022-08-05T09:08:30.800Z,35.91
2022-08-05T09:10:58.552Z,35.86
2022-08-05T09:13:31.787Z,34.98
2022-08-05T09:16:14.723Z,34.85
2022-08-05T09:18:44.450Z,35.02
2022-08-05T09:21:21.083Z,34.59
2022-08-05T09:24:13.222Z,33.09
2022-08-05T09:26:47.541Z,33.92
2022-08-05T09:29:19.929Z,33.26
2022-08-05T09:32:46.131Z,33.56
2022-08-05T09:34:56.888Z,33.82
2022-08-05T09:38:17.119Z,33.38
2022-08-05T09:40:34.466Z,33.80
2022-08-05T09:43:03.728Z,33.47
2022-08-05T09:46:07.339Z,33.56
2022-08-05T09:48:31.921Z,33.03
2022-08-05T09:51:15.298Z,33.03
2022-08-05T09:53:53.904Z,32.34
2022-08-05T09:56:35.229Z,32.64
2022-08-05T09:59:11.253Z,32.26
2022-08-05T10:01:46.547Z,32.48
2022-08-05T10:04:16.164Z,32.21
2022-08-05T10:06:59.224Z,31.63
2022-08-05T10:09:29.468Z,31.41
2022-08-05T10:12:30.251Z,31.47
2022-08-05T10:15:34.623Z,30.73
2022-08-05T10:18:25.927Z,30.63
2022-08-05T10:20:57.268Z,31.04
2022-08-05T10:23:59.220Z,30.24
2022-08-05T10:26:32.759Z,30.45
2022-08-05T10:29:01.267Z,30.67
2022-08-05T10:32:53.683Z,30.59
2022-08-05T10:34:16.883Z,31.11
2022-08-05T10:36:44.927Z,31.19
2022-08-05T10:39:58.977Z,30.40
2022-08-05T10:42:33.892Z,29.44
2022-08-05T10:45:21.499Z,29.79
2022-08-05T10:48:31.726Z,29.63
2022-08-05T10:51:21.733Z,29.36
2022-08-05T10:54:01.014Z,28.56
2022-08-05T10:56:31.534Z,28.86
2022-08-05T10:58:58.564Z,27.84
2022-08-05T11:01:54.750Z,27.96
2022-08-05T11:04:30.830Z,27.85
2022-08-05T11:07:01.362Z,27.08
2022-08-05T11:09:46.421Z,27.76
2022-08-05T11:12:41.197Z,27.26
2022-08-05T11:15:20.677Z,26.87
2022-08-05T11:17:58.984Z,26.91
2022-08-05T11:20:47.378Z,27.45
2022-08-05T11:24:05.536Z,26.52
2022-08-05T11:26:28.014Z,26.34
2022-08-05T11:29:13.434Z,27.14
2022-08-05T11:31:57.769Z,25.96
2022-08-05T11:34:51.350Z,26.39
2022-08-05T11:38:29.747Z,26.44
2022-08-05T11:41:13.854Z,25.99
2022-08-05T11:44:11.545Z,26.29
2022-08-05T11:46:58.711Z,26.26
2022-08-05T11:49:33.996Z,25.65
2022-08-05T11:52:01.896Z,26.04
2022-08-05T11:54:41.534Z,26.13
2022-08-05T11:57:24.219Z,26.46
2022-08-05T12:23:12.873Z,27.75
2022-08-05T12:25:56.977Z,27.26
2022-08-05T12:28:38.843Z,27.17
2022-08-05T12:31:06.131Z,27.16
2022-08-05T12:33:36.574Z,25.73
2022-08-05T12:36:09.771Z,25.70
2022-08-05T12:38:40.000Z,24.53
2022-08-05T12:41:13.974Z,24.91
2022-08-05T12:43:54.263Z,24.70
2022-08-05T12:46:31.158Z,23.22
2022-08-05T12:49:13.078Z,21.83
2022-08-05T12:52:12.603Z,20.16
2022-08-05T12:54:50.966Z,18.59
2022-08-05T12:57:20.373Z,18.96
2022-08-05T13:01:57.814Z,19.59
2022-08-05T13:02:42.737Z,19.93
2022-08-05T13:05:15.255Z,18.99
2022-08-05T13:08:00.077Z,18.07
2022-08-05T13:10:32.355Z,17.65
2022-08-05T13:12:59.518Z,18.52
2022-08-05T13:15:41.242Z,18.60
2022-08-05T13:18:09.077Z,17.57
2022-08-05T13:20:40.332Z,17.30
2022-08-05T13:23:07.879Z,17.14
2022-08-05T13:25:52.573Z,17.38
2022-08-05T13:28:22.616Z,17.00
2022-08-05T13:30:51.185Z,15.86
2022-08-05T13:34:22.398Z,16.32
2022-08-05T13:36:09.402Z,16.13
2022-08-05T13:38:42.315Z,15.59
2022-08-05T13:41:11.455Z,15.66
2022-08-05T13:43:44.886Z,15.61
2022-08-05T13:46:37.750Z,15.35
2022-08-05T13:49:12.071Z,14.67
2022-08-05T13:51:41.652Z,15.18
2022-08-05T13:54:15.063Z,15.02
2022-08-05T13:56:51.516Z,14.03
2022-08-05T13:59:26.871Z,14.55
2022-08-05T14:02:00.610Z,14.26
2022-08-05T14:04:51.306Z,13.92
2022-08-05T14:08:00.498Z,13.58
2022-08-05T14:10:28.477Z,14.41
2022-08-05T14:12:57.185Z,13.90
2022-08-05T14:16:08.864Z,14.12
2022-08-05T14:18:17.875Z,13.47
2022-08-05T14:20:47.975Z,13.12
2022-08-05T14:23:23.891Z,13.42
2022-08-05T14:25:58.465Z,12.67
2022-08-05T14:28:28.694Z,12.75
2022-08-05T14:30:58.053Z,12.59
2022-08-05T14:33:25.609Z,12.87
2022-08-05T14:35:54.747Z,12.93
2022-08-05T14:38:27.777Z,13.15
2022-08-05T14:41:01.549Z,12.70
2022-08-05T14:43:58.789Z,13.20
2022-08-05T14:46:20.021Z,12.74
2022-08-05T14:48:49.866Z,12.39
2022-08-05T14:51:18.338Z,12.10
2022-08-05T14:54:06.931Z,12.07
2022-08-05T14:56:38.016Z,11.87
2022-08-05T14:59:11.532Z,11.96
2022-08-05T15:01:48.430Z,12.39
2022-08-05T15:04:20.713Z,12.11
2022-08-05T15:06:53.162Z,11.77
2022-08-05T15:09:51.531Z,12.37
2022-08-05T15:12:11.432Z,12.42
2022-08-05T15:14:49.575Z,12.11
2022-08-05T15:17:47.302Z,12.13
2022-08-05T15:20:13.401Z,11.92
2022-08-05T15:22:46.713Z,12.30
2022-08-05T15:25:50.967Z,12.40
2022-08-05T15:28:15.452Z,11.71
2022-08-05T15:30:45.754Z,12.25
2022-08-05T15:33:56.429Z,12.76
2022-08-05T15:36:05.470Z,13.32
2022-08-05T15:38:41.146Z,12.59
2022-08-05T15:41:20.469Z,13.02
2022-08-05T15:43:49.578Z,13.56
2022-08-05T15:46:17.021Z,13.27
2022-08-05T15:48:52.918Z,12.63
2022-08-05T15:52:13.839Z,12.99
2022-08-05T15:54:16.934Z,12.42
2022-08-05T15:56:43.953Z,12.97
2022-08-05T15:59:21.709Z,12.75
2022-08-05T16:01:52.776Z,13.20
2022-08-05T16:04:25.236Z,12.80
2022-08-05T16:06:56.469Z,12.98
2022-08-05T16:09:25.057Z,13.35
2022-08-05T16:11:54.049Z,13.14
2022-08-05T16:14:22.682Z,13.20
2022-08-05T16:16:50.892Z,12.65
2022-08-05T16:19:25.637Z,12.87
2022-08-05T16:22:07.201Z,12.82
2022-08-05T16:24:41.872Z,12.51
2022-08-05T16:27:19.475Z,13.02
2022-08-05T16:30:08.292Z,12.51
2022-08-05T16:32:50.982Z,12.63
2022-08-05T16:35:18.107Z,13.30
2022-08-05T16:38:03.006Z,13.54
2022-08-05T16:40:33.493Z,13.76
2022-08-05T16:43:00.554Z,13.82
2022-08-05T16:46:04.819Z,14.28
2022-08-05T16:48:25.352Z,13.94
2022-08-05T16:50:53.920Z,14.57
2022-08-05T16:53:22.521Z,14.65
2022-08-05T16:55:58.900Z,14.84
2022-08-05T16:58:26.841Z,15.18
2022-08-05T17:00:54.069Z,15.94
2022-08-05T17:03:22.042Z,15.62
2022-08-05T17:05:54.008Z,15.91
2022-08-05T17:08:36.073Z,16.20
2022-08-05T17:11:12.607Z,17.06
2022-08-05T17:13:45.411Z,17.43
2022-08-05T17:16:30.128Z,17.46
2022-08-05T17:19:01.396Z,18.58
2022-08-05T17:21:36.229Z,18.46
2022-08-05T17:24:19.689Z,19.12
2022-08-05T17:26:58.464Z,20.05
2022-08-05T17:29:33.791Z,20.02
2022-08-05T17:32:16.675Z,20.64
2022-08-05T17:34:47.819Z,20.86
2022-08-05T17:37:41.575Z,21.13
2022-08-05T17:40:14.222Z,21.89
2022-08-05T17:42:51.369Z,22.35
2022-08-05T17:45:22.890Z,22.72
2022-08-05T17:47:54.848Z,22.59
2022-08-05T17:50:28.488Z,23.33
2022-08-05T17:53:01.772Z,23.91
2022-08-05T17:55:37.523Z,23.98
2022-08-05T17:58:09.884Z,24.15
2022-08-05T18:00:44.925Z,24.55
2022-08-05T18:06:12.311Z,25.14
2022-08-05T18:08:45.503Z,25.09
2022-08-05T18:11:24.254Z,25.42
2022-08-05T18:14:07.108Z,25.22
2022-08-05T18:16:46.981Z,25.98
2022-08-05T18:19:22.668Z,26.73
2022-08-05T18:22:08.499Z,27.56
2022-08-05T18:24:39.628Z,27.20
2022-08-05T18:27:12.422Z,28.24
2022-08-05T18:29:41.473Z,29.73
2022-08-05T18:32:12.740Z,30.36
2022-08-05T18:34:41.549Z,30.37
2022-08-05T18:37:12.195Z,30.67
2022-08-05T18:40:29.670Z,31.09
2022-08-05T18:42:27.619Z,31.71
2022-08-05T18:44:56.336Z,32.80
2022-08-05T18:47:26.677Z,32.93
2022-08-05T18:50:15.489Z,33.75
2022-08-05T18:52:50.877Z,33.89
2022-08-05T18:55:20.089Z,33.83
2022-08-05T18:57:53.251Z,33.76
2022-08-05T19:00:28.910Z,33.87
2022-08-05T19:03:03.622Z,35.31
2022-08-05T19:06:11.320Z,34.54
2022-08-05T19:08:21.634Z,35.70
2022-08-05T19:10:50.103Z,35.84
2022-08-05T19:13:18.147Z,36.08
2022-08-05T19:15:59.434Z,35.80
2022-08-05T19:18:32.237Z,35.65
2022-08-05T19:20:59.746Z,36.73
2022-08-05T19:24:08.230Z,37.31
2022-08-05T19:26:16.596Z,37.10
2022-08-05T19:28:44.067Z,37.42
2022-08-05T19:31:13.284Z,37.18
2022-08-05T19:33:48.655Z,36.63
2022-08-05T19:36:25.837Z,38.33
2022-08-05T19:38:58.779Z,41.06
2022-08-05T19:42:05.564Z,41.32
2022-08-05T19:44:16.936Z,41.74
2022-08-05T19:46:50.263Z,42.58
2022-08-05T19:49:18.076Z,43.25
2022-08-05T19:52:05.070Z,43.10
2022-08-05T19:54:35.449Z,42.65
2022-08-05T19:57:09.332Z,43.65
2022-08-05T19:59:59.333Z,44.00
2022-08-05T20:02:28.190Z,43.67
2022-08-05T20:04:58.709Z,43.63
2022-08-05T20:07:45.746Z,44.15
2022-08-05T20:10:15.105Z,43.83
2022-08-05T20:12:48.206Z,43.90
2022-08-05T20:15:23.058Z,44.49
2022-08-05T20:18:10.556Z,44.48
2022-08-05T20:20:57.272Z,44.22
2022-08-05T20:23:40.033Z,43.68
2022-08-05T20:26:17.473Z,43.93
2022-08-05T20:28:50.524Z,43.87
2022-08-05T20:31:21.804Z,43.76
2022-08-05T20:33:51.254Z,44.08
2022-08-05T20:36:20.022Z,43.91
2022-08-05T20:38:54.187Z,44.28
2022-08-05T20:41:43.295Z,44.77
2022-08-05T20:44:18.995Z,44.16
2022-08-05T20:47:03.375Z,44.34
2022-08-05T20:49:37.884Z,44.87
2022-08-05T20:52:07.724Z,45.51
2022-08-05T20:54:59.198Z,44.94
2022-08-05T20:57:42.002Z,45.30
2022-08-05T21:00:40.919Z,45.21
2022-08-05T21:03:06.208Z,45.93
2022-08-05T21:05:48.213Z,45.88
2022-08-05T21:08:41.398Z,45.53
2022-08-05T21:11:51.563Z,45.29
2022-08-05T21:14:01.404Z,44.82
2022-08-05T21:16:30.920Z,44.41
2022-08-05T21:19:00.940Z,44.64
2022-08-05T21:21:44.297Z,44.70
2022-08-05T21:24:19.637Z,44.71
2022-08-05T21:26:53.216Z,44.60
2022-08-05T21:29:23.558Z,44.56
2022-08-05T21:31:54.530Z,44.63
2022-08-05T21:34:23.160Z,44.61
2022-08-05T21:36:51.680Z,44.72
2022-08-05T21:39:26.824Z,44.84
2022-08-05T21:42:01.476Z,45.25
2022-08-05T21:44:31.050Z,45.34
2022-08-05T21:46:59.904Z,44.99
2022-08-05T21:50:00.498Z,45.33
2022-08-05T21:52:28.210Z,45.45
2022-08-05T21:55:06.940Z,45.62
2022-08-05T21:57:36.047Z,45.62
2022-08-05T22:00:10.840Z,45.87
2022-08-05T22:02:43.101Z,45.45
2022-08-05T22:05:12.636Z,46.00
2022-08-05T22:07:58.990Z,46.12
2022-08-05T22:10:29.358Z,45.79
2022-08-05T22:13:08.762Z,47.28
2022-08-05T22:16:02.729Z,48.31
2022-08-05T22:18:34.671Z,47.70
2022-08-05T22:21:04.865Z,47.19
2022-08-05T22:24:09.049Z,46.93
2022-08-05T22:27:20.728Z,47.93
2022-08-05T22:29:48.636Z,47.10
2022-08-05T22:32:21.516Z,46.96
2022-08-05T22:34:50.593Z,47.78
2022-08-05T22:37:17.977Z,47.69
2022-08-05T22:39:45.660Z,47.38
2022-08-05T22:42:25.261Z,47.45
2022-08-05T22:44:56.648Z,47.51
2022-08-05T22:47:29.950Z,48.51
2022-08-05T22:50:19.362Z,48.12
2022-08-05T22:52:52.573Z,48.07
2022-08-05T22:55:21.906Z,48.28
2022-08-05T22:57:53.469Z,48.94
2022-08-05T23:00:23.330Z,49.51
2022-08-05T23:02:53.395Z,49.23
2022-08-05T23:05:22.600Z,49.56
2022-08-05T23:07:51.473Z,49.36
2022-08-05T23:10:24.030Z,49.45
2022-08-05T23:12:55.222Z,49.09
2022-08-05T23:15:34.710Z,48.89
2022-08-05T23:18:03.580Z,49.23
2022-08-05T23:20:38.976Z,49.19
2022-08-05T23:23:10.064Z,49.36
2022-08-05T23:25:51.408Z,49.00
2022-08-05T23:28:21.033Z,49.16
2022-08-05T23:30:53.768Z,49.25
2022-08-05T23:33:26.100Z,49.99
2022-08-05T23:36:13.539Z,49.85
2022-08-05T23:38:42.819Z,50.06
2022-08-05T23:41:11.108Z,50.09
2022-08-05T23:44:04.778Z,49.96
2022-08-05T23:46:25.817Z,49.91
2022-08-05T23:48:59.912Z,50.29
2022-08-05T23:51:55.440Z,50.32
2022-08-05T23:54:30.284Z,50.39
2022-08-05T23:57:04.720Z,51.15
